sensor_id;sensor_type;location;lat;lon;timestamp;P1;durP1;ratioP1;P2;durP2;ratioP2
22107;SDS011;11220;48.812;9.128;2023-04-01T00:01:45;0.05;;;0.00;;
22107;SDS011;11220;48.812;9.128;2023-04-01T00:04:11;0.10;;;0.00;;
22107;SDS011;11220;48.812;9.128;2023-04-01T00:06:36;0.00;;;0.00;;
22107;SDS011;11220;48.812;9.128;2023-04-01T00:09:02;0.00;;;0.00;;
22107;SDS011;11220;48.812;9.128;2023-04-01T00:11:28;0.05;;;0.00;;
22107;SDS011;11220;48.812;9.128;2023-04-01T00:13:53;0.30;;;0.10;;
22107;SDS011;11220;48.812;9.128;2023-04-01T00:16:19;0.00;;;0.00;;
22107;SDS011;11220;48.812;9.128;2023-04-01T00:18:45;0.32;;;0.00;;
22107;SDS011;11220;48.812;9.128;2023-04-01T00:21:12;0.00;;;0.00;;
22107;SDS011;11220;48.812;9.128;2023-04-01T00:23:38;0.10;;;0.10;;
22107;SDS011;11220;48.812;9.128;2023-04-01T00:26:03;0.08;;;0.00;;
22107;SDS011;11220;48.812;9.128;2023-04-01T00:28:30;0.13;;;0.00;;
22107;SDS011;11220;48.812;9.128;2023-04-01T00:30:56;0.08;;;0.00;;
22107;SDS011;11220;48.812;9.128;2023-04-01T00:33:21;0.00;;;0.00;;
22107;SDS011;11220;48.812;9.128;2023-04-01T00:35:47;0.00;;;0.00;;
22107;SDS011;11220;48.812;9.128;2023-04-01T00:38:12;0.00;;;0.00;;
22107;SDS011;11220;48.812;9.128;2023-04-01T00:40:40;0.00;;;0.00;;
22107;SDS011;11220;48.812;9.128;2023-04-01T00:43:25;0.00;;;0.00;;
22107;SDS011;11220;48.812;9.128;2023-04-01T00:45:51;0.00;;;0.00;;
22107;SDS011;11220;48.812;9.128;2023-04-01T00:48:21;0.00;;;0.00;;
22107;SDS011;11220;48.812;9.128;2023-04-01T00:50:51;0.10;;;0.00;;
22107;SDS011;11220;48.812;9.128;2023-04-01T00:53:21;0.00;;;0.00;;
22107;SDS011;11220;48.812;9.128;2023-04-01T00:55:52;0.00;;;0.00;;
22107;SDS011;11220;48.812;9.128;2023-04-01T00:58:23;0.00;;;0.00;;
22107;SDS011;11220;48.812;9.128;2023-04-01T01:00:50;0.30;;;0.10;;
22107;SDS011;11220;48.812;9.128;2023-04-01T01:03:17;0.30;;;0.00;;
22107;SDS011;11220;48.812;9.128;2023-04-01T01:05:59;0.00;;;0.00;;
22107;SDS011;11220;48.812;9.128;2023-04-01T01:11:17;0.00;;;0.00;;
22107;SDS011;11220;48.812;9.128;2023-04-01T01:16:29;0.00;;;0.00;;
22107;SDS011;11220;48.812;9.128;2023-04-01T01:19:09;0.00;;;0.00;;
22107;SDS011;11220;48.812;9.128;2023-04-01T01:27:25;0.10;;;0.00;;
22107;SDS011;11220;48.812;9.128;2023-04-01T01:30:04;0.10;;;0.05;;
22107;SDS011;11220;48.812;9.128;2023-04-01T01:32:51;0.00;;;0.00;;
22107;SDS011;11220;48.812;9.128;2023-04-01T01:37:57;0.25;;;0.03;;
22107;SDS011;11220;48.812;9.128;2023-04-01T01:40:26;0.00;;;0.00;;
22107;SDS011;11220;48.812;9.128;2023-04-01T01:42:55;0.00;;;0.00;;
22107;SDS011;11220;48.812;9.128;2023-04-01T01:45:25;0.20;;;0.05;;
22107;SDS011;11220;48.812;9.128;2023-04-01T01:47:52;0.00;;;0.00;;
22107;SDS011;11220;48.812;9.128;2023-04-01T01:50:20;0.00;;;0.00;;
22107;SDS011;11220;48.812;9.128;2023-04-01T01:52:47;0.00;;;0.00;;
22107;SDS011;11220;48.812;9.128;2023-04-01T01:55:26;0.63;;;0.00;;
22107;SDS011;11220;48.812;9.128;2023-04-01T02:00:58;0.15;;;0.10;;
22107;SDS011;11220;48.812;9.128;2023-04-01T02:03:27;0.00;;;0.00;;
22107;SDS011;11220;48.812;9.128;2023-04-01T02:08:32;0.00;;;0.00;;
22107;SDS011;11220;48.812;9.128;2023-04-01T02:11:05;0.00;;;0.00;;
22107;SDS011;11220;48.812;9.128;2023-04-01T02:13:37;0.10;;;0.00;;
22107;SDS011;11220;48.812;9.128;2023-04-01T02:16:11;0.00;;;0.00;;
22107;SDS011;11220;48.812;9.128;2023-04-01T02:18:42;0.10;;;0.00;;
22107;SDS011;11220;48.812;9.128;2023-04-01T02:21:11;0.00;;;0.00;;
22107;SDS011;11220;48.812;9.128;2023-04-01T02:23:38;0.88;;;0.00;;
22107;SDS011;11220;48.812;9.128;2023-04-01T02:26:05;0.00;;;0.00;;
22107;SDS011;11220;48.812;9.128;2023-04-01T02:28:33;0.00;;;0.00;;
22107;SDS011;11220;48.812;9.128;2023-04-01T02:31:02;0.10;;;0.00;;
22107;SDS011;11220;48.812;9.128;2023-04-01T02:33:28;0.10;;;0.00;;
22107;SDS011;11220;48.812;9.128;2023-04-01T02:35:55;0.00;;;0.00;;
22107;SDS011;11220;48.812;9.128;2023-04-01T02:38:22;0.00;;;0.00;;
22107;SDS011;11220;48.812;9.128;2023-04-01T02:40:50;0.00;;;0.00;;
22107;SDS011;11220;48.812;9.128;2023-04-01T02:43:20;0.00;;;0.00;;
22107;SDS011;11220;48.812;9.128;2023-04-01T02:45:46;0.10;;;0.00;;
22107;SDS011;11220;48.812;9.128;2023-04-01T02:48:12;0.00;;;0.00;;
22107;SDS011;11220;48.812;9.128;2023-04-01T02:50:38;0.00;;;0.00;;
22107;SDS011;11220;48.812;9.128;2023-04-01T02:53:04;0.00;;;0.00;;
22107;SDS011;11220;48.812;9.128;2023-04-01T02:55:31;0.10;;;0.08;;
22107;SDS011;11220;48.812;9.128;2023-04-01T02:57:57;0.00;;;0.00;;
22107;SDS011;11220;48.812;9.128;2023-04-01T03:00:23;0.03;;;0.00;;
22107;SDS011;11220;48.812;9.128;2023-04-01T03:02:48;0.00;;;0.00;;
22107;SDS011;11220;48.812;9.128;2023-04-01T03:05:14;0.10;;;0.00;;
22107;SDS011;11220;48.812;9.128;2023-04-01T03:07:40;0.00;;;0.00;;
22107;SDS011;11220;48.812;9.128;2023-04-01T03:10:06;0.00;;;0.00;;
22107;SDS011;11220;48.812;9.128;2023-04-01T03:12:32;0.10;;;0.00;;
22107;SDS011;11220;48.812;9.128;2023-04-01T03:14:57;0.00;;;0.00;;
22107;SDS011;11220;48.812;9.128;2023-04-01T03:17:23;0.00;;;0.00;;
22107;SDS011;11220;48.812;9.128;2023-04-01T03:19:48;0.00;;;0.00;;
22107;SDS011;11220;48.812;9.128;2023-04-01T03:22:14;0.00;;;0.00;;
22107;SDS011;11220;48.812;9.128;2023-04-01T03:24:40;0.00;;;0.00;;
22107;SDS011;11220;48.812;9.128;2023-04-01T03:27:05;0.00;;;0.00;;
22107;SDS011;11220;48.812;9.128;2023-04-01T03:29:31;0.57;;;0.10;;
22107;SDS011;11220;48.812;9.128;2023-04-01T03:31:56;0.00;;;0.00;;
22107;SDS011;11220;48.812;9.128;2023-04-01T03:34:24;0.00;;;0.00;;
22107;SDS011;11220;48.812;9.128;2023-04-01T03:36:50;0.00;;;0.00;;
22107;SDS011;11220;48.812;9.128;2023-04-01T03:39:16;0.00;;;0.00;;
22107;SDS011;11220;48.812;9.128;2023-04-01T03:41:43;0.32;;;0.10;;
22107;SDS011;11220;48.812;9.128;2023-04-01T03:44:10;0.00;;;0.00;;
22107;SDS011;11220;48.812;9.128;2023-04-01T03:46:36;0.00;;;0.00;;
22107;SDS011;11220;48.812;9.128;2023-04-01T03:49:01;0.00;;;0.00;;
22107;SDS011;11220;48.812;9.128;2023-04-01T03:51:27;0.10;;;0.00;;
22107;SDS011;11220;48.812;9.128;2023-04-01T03:53:53;0.00;;;0.00;;
22107;SDS011;11220;48.812;9.128;2023-04-01T03:56:19;0.00;;;0.00;;
22107;SDS011;11220;48.812;9.128;2023-04-01T03:58:44;0.00;;;0.00;;
22107;SDS011;11220;48.812;9.128;2023-04-01T04:01:17;0.00;;;0.00;;
22107;SDS011;11220;48.812;9.128;2023-04-01T04:03:45;0.00;;;0.00;;
22107;SDS011;11220;48.812;9.128;2023-04-01T04:06:12;0.00;;;0.00;;
22107;SDS011;11220;48.812;9.128;2023-04-01T04:08:38;0.00;;;0.00;;
22107;SDS011;11220;48.812;9.128;2023-04-01T04:11:04;0.00;;;0.00;;
22107;SDS011;11220;48.812;9.128;2023-04-01T04:13:30;0.00;;;0.00;;
22107;SDS011;11220;48.812;9.128;2023-04-01T04:15:55;0.00;;;0.00;;
22107;SDS011;11220;48.812;9.128;2023-04-01T04:18:21;0.00;;;0.00;;
22107;SDS011;11220;48.812;9.128;2023-04-01T04:20:46;0.00;;;0.00;;
22107;SDS011;11220;48.812;9.128;2023-04-01T04:23:16;0.03;;;0.00;;
22107;SDS011;11220;48.812;9.128;2023-04-01T04:25:53;0.00;;;0.00;;
22107;SDS011;11220;48.812;9.128;2023-04-01T04:28:19;0.00;;;0.00;;
22107;SDS011;11220;48.812;9.128;2023-04-01T04:30:45;0.05;;;0.00;;
22107;SDS011;11220;48.812;9.128;2023-04-01T04:33:10;0.00;;;0.00;;
22107;SDS011;11220;48.812;9.128;2023-04-01T04:35:36;0.00;;;0.00;;
22107;SDS011;11220;48.812;9.128;2023-04-01T04:38:01;0.17;;;0.00;;
22107;SDS011;11220;48.812;9.128;2023-04-01T04:40:27;0.00;;;0.00;;
22107;SDS011;11220;48.812;9.128;2023-04-01T04:42:52;0.00;;;0.00;;
22107;SDS011;11220;48.812;9.128;2023-04-01T04:45:18;0.47;;;0.00;;
22107;SDS011;11220;48.812;9.128;2023-04-01T04:47:43;0.00;;;0.00;;
22107;SDS011;11220;48.812;9.128;2023-04-01T04:50:09;0.00;;;0.00;;
22107;SDS011;11220;48.812;9.128;2023-04-01T04:52:35;0.00;;;0.00;;
22107;SDS011;11220;48.812;9.128;2023-04-01T04:55:00;0.00;;;0.00;;
22107;SDS011;11220;48.812;9.128;2023-04-01T04:57:26;0.35;;;0.00;;
22107;SDS011;11220;48.812;9.128;2023-04-01T04:59:51;0.10;;;0.00;;
22107;SDS011;11220;48.812;9.128;2023-04-01T05:02:17;0.00;;;0.00;;
22107;SDS011;11220;48.812;9.128;2023-04-01T05:04:42;0.00;;;0.00;;
22107;SDS011;11220;48.812;9.128;2023-04-01T05:07:08;0.08;;;0.03;;
22107;SDS011;11220;48.812;9.128;2023-04-01T05:09:33;0.00;;;0.00;;
22107;SDS011;11220;48.812;9.128;2023-04-01T05:11:59;0.00;;;0.00;;
22107;SDS011;11220;48.812;9.128;2023-04-01T05:14:24;0.10;;;0.00;;
22107;SDS011;11220;48.812;9.128;2023-04-01T05:16:50;0.00;;;0.00;;
22107;SDS011;11220;48.812;9.128;2023-04-01T05:19:15;0.13;;;0.00;;
22107;SDS011;11220;48.812;9.128;2023-04-01T05:21:41;0.00;;;0.00;;
22107;SDS011;11220;48.812;9.128;2023-04-01T05:24:07;0.05;;;0.00;;
22107;SDS011;11220;48.812;9.128;2023-04-01T05:26:34;0.10;;;0.00;;
22107;SDS011;11220;48.812;9.128;2023-04-01T05:28:59;0.00;;;0.00;;
22107;SDS011;11220;48.812;9.128;2023-04-01T05:31:25;0.00;;;0.00;;
22107;SDS011;11220;48.812;9.128;2023-04-01T05:33:51;0.00;;;0.00;;
22107;SDS011;11220;48.812;9.128;2023-04-01T05:36:16;0.00;;;0.00;;
22107;SDS011;11220;48.812;9.128;2023-04-01T05:38:42;0.00;;;0.00;;
22107;SDS011;11220;48.812;9.128;2023-04-01T05:41:10;0.00;;;0.00;;
22107;SDS011;11220;48.812;9.128;2023-04-01T05:43:36;0.00;;;0.00;;
22107;SDS011;11220;48.812;9.128;2023-04-01T05:46:02;0.05;;;0.00;;
22107;SDS011;11220;48.812;9.128;2023-04-01T05:48:27;0.00;;;0.00;;
22107;SDS011;11220;48.812;9.128;2023-04-01T05:50:53;0.00;;;0.00;;
22107;SDS011;11220;48.812;9.128;2023-04-01T05:53:19;0.10;;;0.00;;
22107;SDS011;11220;48.812;9.128;2023-04-01T05:55:45;0.00;;;0.00;;
22107;SDS011;11220;48.812;9.128;2023-04-01T05:58:10;0.00;;;0.00;;
22107;SDS011;11220;48.812;9.128;2023-04-01T06:00:36;0.00;;;0.00;;
22107;SDS011;11220;48.812;9.128;2023-04-01T06:03:01;0.00;;;0.00;;
22107;SDS011;11220;48.812;9.128;2023-04-01T06:05:28;0.00;;;0.00;;
22107;SDS011;11220;48.812;9.128;2023-04-01T06:07:58;0.00;;;0.00;;
22107;SDS011;11220;48.812;9.128;2023-04-01T06:10:48;0.00;;;0.00;;
22107;SDS011;11220;48.812;9.128;2023-04-01T06:13:25;0.10;;;0.00;;
22107;SDS011;11220;48.812;9.128;2023-04-01T06:16:15;0.00;;;0.00;;
22107;SDS011;11220;48.812;9.128;2023-04-01T06:19:06;0.00;;;0.00;;
22107;SDS011;11220;48.812;9.128;2023-04-01T06:21:50;0.00;;;0.00;;
22107;SDS011;11220;48.812;9.128;2023-04-01T06:27:25;0.00;;;0.00;;
22107;SDS011;11220;48.812;9.128;2023-04-01T06:46:00;1.55;;;0.00;;
22107;SDS011;11220;48.812;9.128;2023-04-01T06:54:40;0.00;;;0.00;;
22107;SDS011;11220;48.812;9.128;2023-04-01T06:57:28;0.30;;;0.00;;
22107;SDS011;11220;48.812;9.128;2023-04-01T07:00:04;0.00;;;0.00;;
22107;SDS011;11220;48.812;9.128;2023-04-01T07:02:41;0.00;;;0.00;;
22107;SDS011;11220;48.812;9.128;2023-04-01T07:05:13;0.00;;;0.00;;
22107;SDS011;11220;48.812;9.128;2023-04-01T07:10:13;0.00;;;0.00;;
22107;SDS011;11220;48.812;9.128;2023-04-01T07:12:48;0.00;;;0.00;;
22107;SDS011;11220;48.812;9.128;2023-04-01T07:15:28;0.30;;;0.10;;
22107;SDS011;11220;48.812;9.128;2023-04-01T07:18:05;0.00;;;0.00;;
22107;SDS011;11220;48.812;9.128;2023-04-01T07:23:10;0.03;;;0.00;;
22107;SDS011;11220;48.812;9.128;2023-04-01T07:25:42;0.20;;;0.00;;
22107;SDS011;11220;48.812;9.128;2023-04-01T07:28:13;0.00;;;0.00;;
22107;SDS011;11220;48.812;9.128;2023-04-01T07:33:39;0.00;;;0.00;;
22107;SDS011;11220;48.812;9.128;2023-04-01T07:36:10;0.20;;;0.00;;
22107;SDS011;11220;48.812;9.128;2023-04-01T07:38:55;0.10;;;0.00;;
22107;SDS011;11220;48.812;9.128;2023-04-01T07:49:26;0.10;;;0.00;;
22107;SDS011;11220;48.812;9.128;2023-04-01T07:52:16;0.32;;;0.10;;
22107;SDS011;11220;48.812;9.128;2023-04-01T07:57:56;0.10;;;0.00;;
22107;SDS011;11220;48.812;9.128;2023-04-01T08:00:42;0.10;;;0.00;;
22107;SDS011;11220;48.812;9.128;2023-04-01T08:06:20;0.28;;;0.00;;
22107;SDS011;11220;48.812;9.128;2023-04-01T08:08:57;0.03;;;0.03;;
22107;SDS011;11220;48.812;9.128;2023-04-01T08:11:28;0.03;;;0.00;;
22107;SDS011;11220;48.812;9.128;2023-04-01T08:16:38;0.00;;;0.00;;
22107;SDS011;11220;48.812;9.128;2023-04-01T08:22:20;0.05;;;0.00;;
22107;SDS011;11220;48.812;9.128;2023-04-01T08:24:56;0.10;;;0.00;;
22107;SDS011;11220;48.812;9.128;2023-04-01T08:30:01;0.90;;;0.00;;
22107;SDS011;11220;48.812;9.128;2023-04-01T08:32:28;0.13;;;0.00;;
22107;SDS011;11220;48.812;9.128;2023-04-01T08:37:51;0.10;;;0.00;;
22107;SDS011;11220;48.812;9.128;2023-04-01T08:40:37;0.00;;;0.00;;
22107;SDS011;11220;48.812;9.128;2023-04-01T08:53:44;0.00;;;0.00;;
22107;SDS011;11220;48.812;9.128;2023-04-01T08:56:26;0.20;;;0.10;;
22107;SDS011;11220;48.812;9.128;2023-04-01T08:59:04;0.00;;;0.00;;
22107;SDS011;11220;48.812;9.128;2023-04-01T09:01:46;0.10;;;0.00;;
22107;SDS011;11220;48.812;9.128;2023-04-01T09:06:48;0.00;;;0.00;;
22107;SDS011;11220;48.812;9.128;2023-04-01T09:09:45;0.08;;;0.00;;
22107;SDS011;11220;48.812;9.128;2023-04-01T09:17:51;0.20;;;0.00;;
22107;SDS011;11220;48.812;9.128;2023-04-01T09:20:46;0.10;;;0.00;;
22107;SDS011;11220;48.812;9.128;2023-04-01T09:26:34;0.00;;;0.00;;
22107;SDS011;11220;48.812;9.128;2023-04-01T09:34:44;0.10;;;0.00;;
22107;SDS011;11220;48.812;9.128;2023-04-01T09:37:35;0.00;;;0.00;;
22107;SDS011;11220;48.812;9.128;2023-04-01T09:43:14;0.00;;;0.00;;
22107;SDS011;11220;48.812;9.128;2023-04-01T09:51:49;0.00;;;0.00;;
22107;SDS011;11220;48.812;9.128;2023-04-01T09:54:26;0.00;;;0.00;;
22107;SDS011;11220;48.812;9.128;2023-04-01T10:09:01;0.10;;;0.00;;
22107;SDS011;11220;48.812;9.128;2023-04-01T10:17:32;0.00;;;0.00;;
22107;SDS011;11220;48.812;9.128;2023-04-01T10:22:49;0.00;;;0.00;;
22107;SDS011;11220;48.812;9.128;2023-04-01T10:31:47;0.05;;;0.05;;
22107;SDS011;11220;48.812;9.128;2023-04-01T10:37:15;0.00;;;0.00;;
22107;SDS011;11220;48.812;9.128;2023-04-01T10:40:23;0.03;;;0.00;;
22107;SDS011;11220;48.812;9.128;2023-04-01T10:46:12;0.05;;;0.00;;
22107;SDS011;11220;48.812;9.128;2023-04-01T10:58:03;0.57;;;0.00;;
22107;SDS011;11220;48.812;9.128;2023-04-01T11:04:03;0.00;;;0.00;;
22107;SDS011;11220;48.812;9.128;2023-04-01T11:09:47;0.00;;;0.00;;
22107;SDS011;11220;48.812;9.128;2023-04-01T11:13:00;0.00;;;0.00;;
22107;SDS011;11220;48.812;9.128;2023-04-01T11:24:17;0.00;;;0.00;;
22107;SDS011;11220;48.812;9.128;2023-04-01T11:29:52;0.00;;;0.00;;
22107;SDS011;11220;48.812;9.128;2023-04-01T11:32:42;0.00;;;0.00;;
22107;SDS011;11220;48.812;9.128;2023-04-01T11:38:31;0.00;;;0.00;;
22107;SDS011;11220;48.812;9.128;2023-04-01T11:41:15;0.00;;;0.00;;
22107;SDS011;11220;48.812;9.128;2023-04-01T11:46:54;0.38;;;0.00;;
22107;SDS011;11220;48.812;9.128;2023-04-01T11:49:53;0.10;;;0.00;;
22107;SDS011;11220;48.812;9.128;2023-04-01T11:52:33;0.00;;;0.00;;
22107;SDS011;11220;48.812;9.128;2023-04-01T12:00:57;0.00;;;0.00;;
22107;SDS011;11220;48.812;9.128;2023-04-01T12:10:26;0.03;;;0.00;;
22107;SDS011;11220;48.812;9.128;2023-04-01T12:13:28;0.00;;;0.00;;
22107;SDS011;11220;48.812;9.128;2023-04-01T12:19:43;0.08;;;0.00;;
22107;SDS011;11220;48.812;9.128;2023-04-01T12:22:27;0.00;;;0.00;;
22107;SDS011;11220;48.812;9.128;2023-04-01T12:25:19;0.00;;;0.00;;
22107;SDS011;11220;48.812;9.128;2023-04-01T12:33:44;0.20;;;0.00;;
22107;SDS011;11220;48.812;9.128;2023-04-01T12:36:40;0.00;;;0.00;;
22107;SDS011;11220;48.812;9.128;2023-04-01T12:39:29;0.00;;;0.00;;
22107;SDS011;11220;48.812;9.128;2023-04-01T12:42:31;0.05;;;0.00;;
22107;SDS011;11220;48.812;9.128;2023-04-01T12:50:58;0.00;;;0.00;;
22107;SDS011;11220;48.812;9.128;2023-04-01T12:53:32;0.00;;;0.00;;
22107;SDS011;11220;48.812;9.128;2023-04-01T12:56:09;0.03;;;0.03;;
22107;SDS011;11220;48.812;9.128;2023-04-01T12:58:43;0.00;;;0.00;;
22107;SDS011;11220;48.812;9.128;2023-04-01T13:01:57;0.00;;;0.00;;
22107;SDS011;11220;48.812;9.128;2023-04-01T13:04:47;0.00;;;0.00;;
22107;SDS011;11220;48.812;9.128;2023-04-01T13:13:09;0.00;;;0.00;;
22107;SDS011;11220;48.812;9.128;2023-04-01T13:15:50;0.10;;;0.00;;
22107;SDS011;11220;48.812;9.128;2023-04-01T13:18:38;0.10;;;0.00;;
22107;SDS011;11220;48.812;9.128;2023-04-01T13:21:12;0.00;;;0.00;;
22107;SDS011;11220;48.812;9.128;2023-04-01T13:24:00;0.00;;;0.00;;
22107;SDS011;11220;48.812;9.128;2023-04-01T13:27:02;0.00;;;0.00;;
22107;SDS011;11220;48.812;9.128;2023-04-01T13:32:38;0.10;;;0.00;;
22107;SDS011;11220;48.812;9.128;2023-04-01T13:35:16;0.00;;;0.00;;
22107;SDS011;11220;48.812;9.128;2023-04-01T13:43:21;0.00;;;0.00;;
22107;SDS011;11220;48.812;9.128;2023-04-01T13:54:21;0.00;;;0.00;;
22107;SDS011;11220;48.812;9.128;2023-04-01T14:00:22;0.00;;;0.00;;
22107;SDS011;11220;48.812;9.128;2023-04-01T14:08:35;0.00;;;0.00;;
22107;SDS011;11220;48.812;9.128;2023-04-01T14:11:39;0.08;;;0.00;;
22107;SDS011;11220;48.812;9.128;2023-04-01T14:14:30;0.00;;;0.00;;
22107;SDS011;11220;48.812;9.128;2023-04-01T14:19:50;0.00;;;0.00;;
22107;SDS011;11220;48.812;9.128;2023-04-01T14:28:20;0.00;;;0.00;;
22107;SDS011;11220;48.812;9.128;2023-04-01T14:31:04;0.00;;;0.00;;
22107;SDS011;11220;48.812;9.128;2023-04-01T14:47:41;0.00;;;0.00;;
22107;SDS011;11220;48.812;9.128;2023-04-01T14:50:17;0.00;;;0.00;;
22107;SDS011;11220;48.812;9.128;2023-04-01T14:52:52;0.00;;;0.00;;
22107;SDS011;11220;48.812;9.128;2023-04-01T14:55:44;0.00;;;0.00;;
22107;SDS011;11220;48.812;9.128;2023-04-01T14:58:23;0.00;;;0.00;;
22107;SDS011;11220;48.812;9.128;2023-04-01T15:09:32;0.05;;;0.00;;
22107;SDS011;11220;48.812;9.128;2023-04-01T15:20:35;0.00;;;0.00;;
22107;SDS011;11220;48.812;9.128;2023-04-01T15:31:44;0.00;;;0.00;;
22107;SDS011;11220;48.812;9.128;2023-04-01T15:39:56;0.00;;;0.00;;
22107;SDS011;11220;48.812;9.128;2023-04-01T15:42:41;0.00;;;0.00;;
22107;SDS011;11220;48.812;9.128;2023-04-01T15:45:31;0.00;;;0.00;;
22107;SDS011;11220;48.812;9.128;2023-04-01T15:51:01;0.00;;;0.00;;
22107;SDS011;11220;48.812;9.128;2023-04-01T15:53:37;0.00;;;0.00;;
22107;SDS011;11220;48.812;9.128;2023-04-01T15:56:26;0.00;;;0.00;;
22107;SDS011;11220;48.812;9.128;2023-04-01T16:01:55;0.00;;;0.00;;
22107;SDS011;11220;48.812;9.128;2023-04-01T16:07:30;0.00;;;0.00;;
22107;SDS011;11220;48.812;9.128;2023-04-01T16:10:16;0.00;;;0.00;;
22107;SDS011;11220;48.812;9.128;2023-04-01T16:23:58;0.00;;;0.00;;
22107;SDS011;11220;48.812;9.128;2023-04-01T16:26:44;0.00;;;0.00;;
22107;SDS011;11220;48.812;9.128;2023-04-01T16:34:56;0.00;;;0.00;;
22107;SDS011;11220;48.812;9.128;2023-04-01T16:37:45;0.00;;;0.00;;
22107;SDS011;11220;48.812;9.128;2023-04-01T16:40:35;0.00;;;0.00;;
22107;SDS011;11220;48.812;9.128;2023-04-01T16:46:08;0.00;;;0.00;;
22107;SDS011;11220;48.812;9.128;2023-04-01T16:51:25;0.00;;;0.00;;
22107;SDS011;11220;48.812;9.128;2023-04-01T16:54:26;0.00;;;0.00;;
22107;SDS011;11220;48.812;9.128;2023-04-01T16:57:03;0.00;;;0.00;;
22107;SDS011;11220;48.812;9.128;2023-04-01T17:02:26;0.00;;;0.00;;
22107;SDS011;11220;48.812;9.128;2023-04-01T17:05:09;0.00;;;0.00;;
22107;SDS011;11220;48.812;9.128;2023-04-01T17:07:48;0.00;;;0.00;;
22107;SDS011;11220;48.812;9.128;2023-04-01T17:26:48;0.00;;;0.00;;
22107;SDS011;11220;48.812;9.128;2023-04-01T17:29:24;0.00;;;0.00;;
22107;SDS011;11220;48.812;9.128;2023-04-01T17:37:36;0.10;;;0.10;;
22107;SDS011;11220;48.812;9.128;2023-04-01T17:42:46;0.68;;;0.25;;
22107;SDS011;11220;48.812;9.128;2023-04-01T17:45:47;0.20;;;0.20;;
22107;SDS011;11220;48.812;9.128;2023-04-01T17:54:00;1.08;;;0.50;;
22107;SDS011;11220;48.812;9.128;2023-04-01T18:02:01;1.40;;;0.75;;
22107;SDS011;11220;48.812;9.128;2023-04-01T18:07:44;1.38;;;0.88;;
22107;SDS011;11220;48.812;9.128;2023-04-01T18:10:23;1.67;;;0.80;;
22107;SDS011;11220;48.812;9.128;2023-04-01T18:13:06;1.58;;;0.95;;
22107;SDS011;11220;48.812;9.128;2023-04-01T18:18:35;1.83;;;1.02;;
22107;SDS011;11220;48.812;9.128;2023-04-01T18:22:08;2.65;;;1.27;;
22107;SDS011;11220;48.812;9.128;2023-04-01T18:24:45;2.65;;;1.42;;
22107;SDS011;11220;48.812;9.128;2023-04-01T18:27:30;2.58;;;1.40;;
22107;SDS011;11220;48.812;9.128;2023-04-01T18:30:18;3.10;;;1.75;;
22107;SDS011;11220;48.812;9.128;2023-04-01T18:36:08;3.80;;;1.50;;
22107;SDS011;11220;48.812;9.128;2023-04-01T18:38:40;1.90;;;1.30;;
22107;SDS011;11220;48.812;9.128;2023-04-01T18:44:07;2.42;;;1.33;;
22107;SDS011;11220;48.812;9.128;2023-04-01T18:54:50;3.22;;;1.60;;
22107;SDS011;11220;48.812;9.128;2023-04-01T19:00:47;3.47;;;1.65;;
22107;SDS011;11220;48.812;9.128;2023-04-01T19:03:26;4.45;;;2.10;;
22107;SDS011;11220;48.812;9.128;2023-04-01T19:06:27;4.07;;;1.63;;
22107;SDS011;11220;48.812;9.128;2023-04-01T19:08:59;2.42;;;1.55;;
22107;SDS011;11220;48.812;9.128;2023-04-01T19:11:47;3.58;;;1.52;;
22107;SDS011;11220;48.812;9.128;2023-04-01T19:20:23;4.15;;;1.75;;
22107;SDS011;11220;48.812;9.128;2023-04-01T19:26:17;3.50;;;1.75;;
22107;SDS011;11220;48.812;9.128;2023-04-01T19:29:16;2.95;;;1.70;;
22107;SDS011;11220;48.812;9.128;2023-04-01T19:37:26;2.20;;;1.48;;
22107;SDS011;11220;48.812;9.128;2023-04-01T19:40:09;2.75;;;1.60;;
22107;SDS011;11220;48.812;9.128;2023-04-01T19:48:15;2.75;;;1.30;;
22107;SDS011;11220;48.812;9.128;2023-04-01T19:53:40;2.67;;;1.50;;
22107;SDS011;11220;48.812;9.128;2023-04-01T19:56:22;2.22;;;1.50;;
22107;SDS011;11220;48.812;9.128;2023-04-01T19:58:54;2.85;;;1.60;;
22107;SDS011;11220;48.812;9.128;2023-04-01T20:07:02;1.90;;;1.30;;
22107;SDS011;11220;48.812;9.128;2023-04-01T20:14:59;2.42;;;1.05;;
22107;SDS011;11220;48.812;9.128;2023-04-01T20:20:14;1.85;;;1.10;;
22107;SDS011;11220;48.812;9.128;2023-04-01T20:25:33;2.53;;;1.40;;
22107;SDS011;11220;48.812;9.128;2023-04-01T20:33:30;1.98;;;1.20;;
22107;SDS011;11220;48.812;9.128;2023-04-01T20:36:20;2.58;;;1.10;;
22107;SDS011;11220;48.812;9.128;2023-04-01T20:45:04;1.58;;;1.05;;
22107;SDS011;11220;48.812;9.128;2023-04-01T21:01:24;1.65;;;0.98;;
22107;SDS011;11220;48.812;9.128;2023-04-01T21:06:48;1.77;;;0.98;;
22107;SDS011;11220;48.812;9.128;2023-04-01T21:09:41;1.65;;;0.90;;
22107;SDS011;11220;48.812;9.128;2023-04-01T21:12:30;2.25;;;1.00;;
22107;SDS011;11220;48.812;9.128;2023-04-01T21:26:12;1.67;;;0.65;;
22107;SDS011;11220;48.812;9.128;2023-04-01T21:34:58;1.15;;;0.70;;
22107;SDS011;11220;48.812;9.128;2023-04-01T21:38:00;1.77;;;0.82;;
22107;SDS011;11220;48.812;9.128;2023-04-01T21:46:52;0.93;;;0.70;;
22107;SDS011;11220;48.812;9.128;2023-04-01T21:57:42;1.25;;;0.80;;
22107;SDS011;11220;48.812;9.128;2023-04-01T22:06:46;1.20;;;0.70;;
22107;SDS011;11220;48.812;9.128;2023-04-01T22:09:18;1.83;;;0.90;;
22107;SDS011;11220;48.812;9.128;2023-04-01T22:12:00;1.55;;;0.93;;
22107;SDS011;11220;48.812;9.128;2023-04-01T22:15:26;1.33;;;0.80;;
22107;SDS011;11220;48.812;9.128;2023-04-01T22:18:11;1.25;;;0.80;;
22107;SDS011;11220;48.812;9.128;2023-04-01T22:23:44;1.73;;;0.80;;
22107;SDS011;11220;48.812;9.128;2023-04-01T22:26:28;0.93;;;0.70;;
22107;SDS011;11220;48.812;9.128;2023-04-01T22:29:14;1.40;;;0.80;;
22107;SDS011;11220;48.812;9.128;2023-04-01T22:34:33;0.98;;;0.60;;
22107;SDS011;11220;48.812;9.128;2023-04-01T22:42:30;1.20;;;0.60;;
22107;SDS011;11220;48.812;9.128;2023-04-01T22:51:16;0.85;;;0.50;;
22107;SDS011;11220;48.812;9.128;2023-04-01T22:56:31;1.48;;;0.80;;
22107;SDS011;11220;48.812;9.128;2023-04-01T22:59:13;0.70;;;0.50;;
22107;SDS011;11220;48.812;9.128;2023-04-01T23:01:57;1.05;;;0.50;;
22107;SDS011;11220;48.812;9.128;2023-04-01T23:04:31;0.65;;;0.50;;
22107;SDS011;11220;48.812;9.128;2023-04-01T23:07:00;0.73;;;0.40;;
22107;SDS011;11220;48.812;9.128;2023-04-01T23:09:41;0.50;;;0.40;;
22107;SDS011;11220;48.812;9.128;2023-04-01T23:12:08;1.23;;;0.60;;
22107;SDS011;11220;48.812;9.128;2023-04-01T23:14:42;0.52;;;0.45;;
22107;SDS011;11220;48.812;9.128;2023-04-01T23:17:19;1.15;;;0.50;;
22107;SDS011;11220;48.812;9.128;2023-04-01T23:25:23;0.90;;;0.40;;
22107;SDS011;11220;48.812;9.128;2023-04-01T23:35:50;0.70;;;0.32;;
22107;SDS011;11220;48.812;9.128;2023-04-01T23:38:16;0.47;;;0.40;;
22107;SDS011;11220;48.812;9.128;2023-04-01T23:40:43;0.88;;;0.30;;
22107;SDS011;11220;48.812;9.128;2023-04-01T23:43:21;0.43;;;0.20;;
22107;SDS011;11220;48.812;9.128;2023-04-01T23:45:50;0.65;;;0.30;;
22107;SDS011;11220;48.812;9.128;2023-04-01T23:48:17;0.32;;;0.30;;
22107;SDS011;11220;48.812;9.128;2023-04-01T23:50:48;0.35;;;0.20;;
22107;SDS011;11220;48.812;9.128;2023-04-01T23:55:44;0.30;;;0.30;;
